Time;durP1;ratioP1;P1;durP2;ratioP2;P2;SDS_P1;SDS_P2;PMS_P1;PMS_P2;Temp;Humidity;BMP_temperature;BMP_pressure;BME280_temperature;BME280_humidity;BME280_pressure;Samples;Min_cycle;Max_cycle;Signal;HPM_P1;HPM_P2
2021/10/01 00:01:20;;;;;;;;;;;22.40;55.30;;;;;;5018506;28;20861;-66
2021/10/01 00:03:47;;;;;;;;;;;22.40;55.30;;;;;;5026820;28;20312;-70
2021/10/01 00:06:14;;;;;;;;;;;22.40;55.30;;;;;;5028353;28;19960;-70
2021/10/01 00:08:41;;;;;;;;;;;22.40;55.30;;;;;;5011158;28;20011;-70
2021/10/01 00:11:11;;;;;;;;;;;22.40;55.40;;;;;;5018890;28;19921;-68
2021/10/01 00:13:38;;;;;;;;;;;22.40;55.50;;;;;;5028081;28;20016;-70
2021/10/01 00:16:06;;;;;;;;;;;22.30;55.50;;;;;;5028114;28;19921;-70
2021/10/01 00:18:33;;;;;;;;;;;22.30;55.60;;;;;;5027893;28;19921;-70
2021/10/01 00:21:00;;;;;;;;;;;22.30;55.60;;;;;;5020483;28;20557;-69
2021/10/01 00:23:27;;;;;;;;;;;22.30;55.60;;;;;;5025478;28;19967;-70
2021/10/01 00:25:54;;;;;;;;;;;22.30;55.60;;;;;;5028933;28;19921;-70
2021/10/01 00:28:21;;;;;;;;;;;22.30;55.60;;;;;;5028161;28;20373;-69
2021/10/01 00:30:49;;;;;;;;;;;22.30;55.60;;;;;;5022479;28;19921;-67
2021/10/01 00:33:17;;;;;;;;;;;22.30;55.60;;;;;;5027935;28;19928;-71
2021/10/01 00:35:44;;;;;;;;;;;22.30;55.60;;;;;;5032263;28;20382;-70
2021/10/01 00:38:11;;;;;;;;;;;22.30;55.60;;;;;;5032144;28;19952;-70
2021/10/01 00:40:38;;;;;;;;;;;22.30;55.60;;;;;;5025881;28;19923;-70
2021/10/01 00:43:05;;;;;;;;;;;22.30;55.60;;;;;;5026484;28;19928;-70
2021/10/01 00:45:32;;;;;;;;;;;22.30;55.60;;;;;;5032130;28;20016;-70
2021/10/01 00:47:59;;;;;;;;;;;22.30;55.60;;;;;;5031833;28;19932;-70
2021/10/01 00:50:31;;;;;;;;;;;22.20;55.60;;;;;;5009621;28;19925;-69
2021/10/01 00:52:58;;;;;;;;;;;22.30;55.70;;;;;;5029189;28;19924;-70
2021/10/01 00:55:25;;;;;;;;;;;22.20;55.60;;;;;;5032329;28;19921;-70
2021/10/01 00:57:52;;;;;;;;;;;22.30;55.60;;;;;;5032050;28;19967;-71
2021/10/01 01:00:29;;;;;;;;;;;22.30;55.60;;;;;;5009600;28;19921;-70
2021/10/01 01:02:57;;;;;;;;;;;22.30;55.50;;;;;;5010722;28;19925;-69
2021/10/01 01:05:28;;;;;;;;;;;22.30;55.50;;;;;;5031555;28;19927;-69
2021/10/01 01:08:00;;;;;;;;;;;22.30;55.40;;;;;;5032098;28;20000;-70
2021/10/01 01:10:39;;;;;;;;;;;22.30;55.40;;;;;;5027022;28;20015;-70
2021/10/01 01:13:13;;;;;;;;;;;22.30;55.30;;;;;;5028211;28;19927;-70
2021/10/01 01:15:44;;;;;;;;;;;22.30;55.20;;;;;;5032185;28;19982;-70
2021/10/01 01:18:13;;;;;;;;;;;22.40;55.30;;;;;;5013889;28;19964;-70
2021/10/01 01:20:59;;;;;;;;;;;22.40;55.20;;;;;;5025400;28;19916;-67
2021/10/01 01:23:46;;;;;;;;;;;22.40;55.20;;;;;;5027121;28;20404;-70
2021/10/01 01:26:31;;;;;;;;;;;22.30;55.20;;;;;;5016872;28;19975;-67
2021/10/01 01:29:04;;;;;;;;;;;22.30;55.30;;;;;;5032095;28;19921;-71
2021/10/01 01:31:41;;;;;;;;;;;22.30;55.40;;;;;;5020668;28;20012;-66
2021/10/01 01:34:09;;;;;;;;;;;22.20;55.40;;;;;;5031807;28;20340;-70
2021/10/01 01:36:36;;;;;;;;;;;22.20;55.50;;;;;;5032356;28;20016;-70
2021/10/01 01:39:05;;;;;;;;;;;22.20;55.60;;;;;;5030899;28;20016;-71
2021/10/01 01:41:34;;;;;;;;;;;22.20;55.60;;;;;;5021228;28;19957;-70
2021/10/01 01:44:01;;;;;;;;;;;22.20;55.60;;;;;;5031013;28;19956;-70
2021/10/01 01:46:28;;;;;;;;;;;22.20;55.50;;;;;;5031835;28;20309;-70
2021/10/01 01:48:56;;;;;;;;;;;22.20;55.50;;;;;;5031679;28;19931;-70
2021/10/01 01:51:23;;;;;;;;;;;22.20;55.50;;;;;;5021811;28;19929;-70
2021/10/01 01:53:50;;;;;;;;;;;22.20;55.50;;;;;;4996929;28;20408;-70
2021/10/01 01:56:17;;;;;;;;;;;22.20;55.50;;;;;;5031779;28;19927;-70
2021/10/01 01:58:45;;;;;;;;;;;22.20;55.60;;;;;;5031149;28;20393;-69
2021/10/01 02:01:19;;;;;;;;;;;22.20;55.60;;;;;;5021329;28;19921;-66
2021/10/01 02:03:46;;;;;;;;;;;22.20;55.60;;;;;;5030603;28;19979;-70
2021/10/01 02:06:14;;;;;;;;;;;22.20;55.60;;;;;;5029902;28;19927;-69
2021/10/01 02:08:41;;;;;;;;;;;22.20;55.60;;;;;;5030250;28;19921;-70
2021/10/01 02:11:09;;;;;;;;;;;22.20;55.60;;;;;;5019571;28;20432;-69
2021/10/01 02:13:37;;;;;;;;;;;22.20;55.50;;;;;;5030540;28;19968;-70
2021/10/01 02:16:05;;;;;;;;;;;22.20;55.50;;;;;;5030146;28;19971;-69
2021/10/01 02:18:34;;;;;;;;;;;22.20;55.40;;;;;;5030371;28;20520;-69
2021/10/01 02:21:02;;;;;;;;;;;22.20;55.40;;;;;;5016338;28;19971;-67
2021/10/01 02:23:28;;;;;;;;;;;22.20;55.30;;;;;;5030603;28;20003;-69
2021/10/01 02:28:54;;;;;;;;;;;22.20;55.20;;;;;;5029950;28;20016;-69
2021/10/01 02:31:22;;;;;;;;;;;22.30;55.20;;;;;;5017482;28;20012;-70
2021/10/01 02:33:50;;;;;;;;;;;22.30;55.10;;;;;;5031059;28;20020;-70
2021/10/01 02:36:17;;;;;;;;;;;22.30;55.10;;;;;;5030030;28;20023;-69
2021/10/01 02:38:44;;;;;;;;;;;22.30;55.00;;;;;;5030629;28;19964;-69
2021/10/01 02:41:11;;;;;;;;;;;22.20;55.00;;;;;;5017384;28;20288;-69
2021/10/01 02:43:38;;;;;;;;;;;22.20;55.10;;;;;;5029555;28;19967;-70
2021/10/01 02:46:06;;;;;;;;;;;22.20;55.20;;;;;;5029415;28;19924;-70
2021/10/01 02:48:34;;;;;;;;;;;22.20;55.30;;;;;;5030423;28;19968;-69
2021/10/01 02:51:05;;;;;;;;;;;22.20;55.40;;;;;;5016185;28;19975;-65
2021/10/01 02:53:37;;;;;;;;;;;22.10;55.40;;;;;;5031294;28;20004;-70
2021/10/01 02:56:10;;;;;;;;;;;22.10;55.40;;;;;;5032741;28;19952;-69
2021/10/01 02:58:41;;;;;;;;;;;22.10;55.40;;;;;;5033763;28;19984;-69
2021/10/01 03:01:10;;;;;;;;;;;22.10;55.40;;;;;;5030717;28;19917;-69
2021/10/01 03:03:40;;;;;;;;;;;22.10;55.40;;;;;;5029269;28;20012;-69
2021/10/01 03:06:08;;;;;;;;;;;22.10;55.40;;;;;;5032728;28;19921;-69
2021/10/01 03:08:36;;;;;;;;;;;22.10;55.30;;;;;;5033385;28;19924;-70
2021/10/01 03:14:09;;;;;;;;;;;22.10;55.30;;;;;;5029514;28;20000;-69
2021/10/01 03:16:36;;;;;;;;;;;22.10;55.40;;;;;;5028598;28;20003;-69
2021/10/01 03:19:04;;;;;;;;;;;22.10;55.40;;;;;;5028626;28;19985;-69
2021/10/01 03:21:32;;;;;;;;;;;22.10;55.40;;;;;;5023807;28;19924;-69
2021/10/01 03:24:00;;;;;;;;;;;22.10;55.40;;;;;;5029047;28;19917;-69
2021/10/01 03:26:27;;;;;;;;;;;22.10;55.40;;;;;;5028333;28;20003;-69
2021/10/01 03:28:54;;;;;;;;;;;22.10;55.40;;;;;;5028010;28;19921;-70
2021/10/01 03:31:25;;;;;;;;;;;22.10;55.30;;;;;;5020099;28;19917;-67
2021/10/01 03:33:52;;;;;;;;;;;22.10;55.30;;;;;;5027111;28;19920;-69
2021/10/01 03:36:20;;;;;;;;;;;22.10;55.20;;;;;;5028046;28;19927;-70
2021/10/01 03:38:47;;;;;;;;;;;22.10;55.10;;;;;;5029097;28;20004;-70
2021/10/01 03:41:15;;;;;;;;;;;22.10;55.10;;;;;;5020485;28;20008;-70
2021/10/01 03:43:42;;;;;;;;;;;22.20;55.10;;;;;;5027502;28;20000;-70
2021/10/01 03:46:09;;;;;;;;;;;22.20;55.00;;;;;;5028250;28;19956;-69
2021/10/01 03:48:36;;;;;;;;;;;22.10;54.90;;;;;;5028150;28;20439;-69
2021/10/01 03:51:06;;;;;;;;;;;22.10;54.80;;;;;;5020172;28;19917;-66
2021/10/01 03:53:33;;;;;;;;;;;22.20;54.90;;;;;;5024072;28;19979;-69
2021/10/01 03:56:01;;;;;;;;;;;22.20;54.80;;;;;;5028754;28;20374;-70
2021/10/01 03:58:28;;;;;;;;;;;22.10;54.80;;;;;;5028469;28;20019;-70
2021/10/01 04:00:55;;;;;;;;;;;22.10;54.90;;;;;;5017796;28;20019;-69
2021/10/01 04:03:22;;;;;;;;;;;22.10;54.90;;;;;;5025925;28;19921;-69
2021/10/01 04:05:49;;;;;;;;;;;22.10;55.10;;;;;;5028073;28;19921;-69
2021/10/01 04:08:16;;;;;;;;;;;22.00;55.10;;;;;;5028135;28;19925;-70
2021/10/01 04:10:43;;;;;;;;;;;22.00;55.10;;;;;;5021918;28;20477;-69
2021/10/01 04:13:10;;;;;;;;;;;22.00;55.20;;;;;;5025286;28;20084;-69
2021/10/01 04:15:37;;;;;;;;;;;22.00;55.20;;;;;;5027542;28;20233;-69
2021/10/01 04:18:04;;;;;;;;;;;22.00;55.20;;;;;;5025992;28;19928;-67
2021/10/01 04:20:34;;;;;;;;;;;22.00;55.20;;;;;;5018882;28;19961;-69
2021/10/01 04:23:00;;;;;;;;;;;22.00;55.20;;;;;;5023196;28;20326;-70
2021/10/01 04:25:28;;;;;;;;;;;22.00;55.10;;;;;;5027399;28;19984;-69
2021/10/01 04:27:55;;;;;;;;;;;22.00;55.10;;;;;;5026012;28;19925;-70
2021/10/01 04:30:22;;;;;;;;;;;22.00;55.10;;;;;;5022498;28;20514;-71
2021/10/01 04:33:00;;;;;;;;;;;22.00;55.10;;;;;;5024364;28;19960;-70
2021/10/01 04:35:27;;;;;;;;;;;22.00;55.10;;;;;;5028480;28;20386;-70
2021/10/01 04:37:54;;;;;;;;;;;22.00;55.10;;;;;;5028095;28;19960;-69
2021/10/01 04:40:21;;;;;;;;;;;22.00;55.20;;;;;;5021481;28;20370;-70
2021/10/01 04:42:48;;;;;;;;;;;22.00;55.20;;;;;;5022358;28;20176;-70
2021/10/01 04:45:15;;;;;;;;;;;22.00;55.10;;;;;;5027714;28;20035;-69
2021/10/01 04:47:42;;;;;;;;;;;22.00;55.00;;;;;;5027513;28;20024;-70
2021/10/01 04:50:11;;;;;;;;;;;22.00;55.00;;;;;;5020578;28;20203;-66
2021/10/01 04:52:38;;;;;;;;;;;22.00;54.90;;;;;;5015482;28;20012;-70
2021/10/01 04:55:05;;;;;;;;;;;22.10;54.90;;;;;;5026842;28;20370;-67
2021/10/01 04:57:32;;;;;;;;;;;22.10;54.80;;;;;;5021854;28;19921;-67
2021/10/01 04:59:59;;;;;;;;;;;22.10;54.60;;;;;;5023352;28;19929;-67
2021/10/01 05:02:26;;;;;;;;;;;22.10;54.70;;;;;;5019563;28;20385;-67
2021/10/01 05:04:55;;;;;;;;;;;22.10;54.60;;;;;;5026767;28;19968;-70
2021/10/01 05:07:22;;;;;;;;;;;22.10;54.40;;;;;;5025818;28;19953;-70
2021/10/01 05:10:07;;;;;;;;;;;22.10;54.10;;;;;;4989082;28;19943;-66
2021/10/01 05:12:34;;;;;;;;;;;22.10;54.10;;;;;;5022127;28;19931;-69
2021/10/01 05:15:02;;;;;;;;;;;22.10;54.00;;;;;;5035802;28;20362;-67
2021/10/01 05:17:29;;;;;;;;;;;22.10;54.00;;;;;;5035852;28;19928;-67
2021/10/01 05:19:56;;;;;;;;;;;22.10;53.90;;;;;;5038995;28;19925;-66
2021/10/01 05:22:23;;;;;;;;;;;22.10;54.00;;;;;;5038673;28;19921;-68
2021/10/01 05:24:49;;;;;;;;;;;22.20;54.10;;;;;;5039286;28;19963;-66
2021/10/01 05:27:17;;;;;;;;;;;22.20;54.70;;;;;;5021704;28;20080;-68
2021/10/01 05:29:44;;;;;;;;;;;22.10;54.10;;;;;;5039781;28;19968;-67
2021/10/01 05:32:12;;;;;;;;;;;22.10;54.10;;;;;;5038428;28;20008;-68
2021/10/01 05:34:39;;;;;;;;;;;22.20;54.20;;;;;;5034833;28;19917;-68
2021/10/01 05:37:06;;;;;;;;;;;22.20;54.20;;;;;;5024607;28;19943;-66
2021/10/01 05:39:33;;;;;;;;;;;22.20;54.20;;;;;;5019715;28;20523;-66
2021/10/01 05:42:02;;;;;;;;;;;22.20;54.20;;;;;;5012618;28;20413;-65
2021/10/01 05:44:32;;;;;;;;;;;22.30;54.20;;;;;;5008517;28;19924;-68
2021/10/01 05:47:02;;;;;;;;;;;22.30;54.20;;;;;;5019658;28;19995;-66
2021/10/01 05:49:37;;;;;;;;;;;22.30;54.20;;;;;;5020058;28;20002;-67
2021/10/01 05:53:03;;;;;;;;;;;22.30;54.10;;;;;;5075729;27;20682;-66
2021/10/01 05:55:30;;;;;;;;;;;22.30;53.90;;;;;;5060107;28;19935;-65
2021/10/01 05:57:57;;;;;;;;;;;22.40;53.80;;;;;;5073092;28;20553;-66
2021/10/01 06:00:24;;;;;;;;;;;22.40;53.60;;;;;;5071123;28;19924;-67
2021/10/01 06:02:52;;;;;;;;;;;22.40;53.50;;;;;;5059923;28;19920;-66
2021/10/01 06:05:19;;;;;;;;;;;22.40;53.40;;;;;;5074010;28;19987;-65
2021/10/01 06:07:46;;;;;;;;;;;22.40;53.50;;;;;;5070284;28;20011;-69
2021/10/01 06:10:13;;;;;;;;;;;22.40;53.50;;;;;;5064401;28;19931;-69
2021/10/01 06:12:41;;;;;;;;;;;22.40;53.40;;;;;;5040834;28;19932;-65
2021/10/01 06:15:09;;;;;;;;;;;22.50;53.40;;;;;;5051014;28;19963;-66
2021/10/01 06:17:36;;;;;;;;;;;22.50;53.50;;;;;;5070269;28;20032;-65
2021/10/01 06:23:34;;;;;;;;;;;22.50;53.40;;;;;;5062421;28;19940;-63
2021/10/01 06:26:03;;;;;;;;;;;22.50;53.30;;;;;;5069810;28;20027;-66
2021/10/01 06:28:31;;;;;;;;;;;22.60;53.30;;;;;;5077698;28;20019;-67
2021/10/01 06:31:01;;;;;;;;;;;22.60;53.10;;;;;;5067453;28;19920;-65
2021/10/01 06:33:30;;;;;;;;;;;22.60;53.00;;;;;;5051705;28;20015;-67
2021/10/01 06:35:57;;;;;;;;;;;22.70;52.80;;;;;;5075207;28;19981;-65
2021/10/01 06:38:25;;;;;;;;;;;22.70;52.70;;;;;;5057327;28;20027;-70
2021/10/01 06:41:13;;;;;;;;;;;22.70;52.50;;;;;;5067032;28;19956;-67
2021/10/01 06:43:43;;;;;;;;;;;22.70;52.30;;;;;;5063690;28;20012;-71
2021/10/01 06:46:25;;;;;;;;;;;22.70;52.10;;;;;;5074456;28;19956;-67
2021/10/01 06:49:10;;;;;;;;;;;22.80;51.90;;;;;;5073742;28;19987;-71
2021/10/01 06:52:10;;;;;;;;;;;22.80;51.90;;;;;;5061933;28;19927;-66
2021/10/01 07:24:04;;;;;;;;;;;23.00;50.90;;;;;;5047194;28;19933;-64
2021/10/01 07:35:35;;;;;;;;;;;23.20;51.10;;;;;;5053110;28;19988;-67
2021/10/01 08:19:09;;;;;;;;;;;23.60;51.10;;;;;;5054353;28;19977;-64
2021/10/01 08:21:36;;;;;;;;;;;23.70;51.00;;;;;;5051238;28;19939;-64
2021/10/01 08:24:13;;;;;;;;;;;23.70;50.80;;;;;;5037414;28;20285;-69
2021/10/01 08:26:41;;;;;;;;;;;23.70;50.70;;;;;;5063140;28;20542;-73
2021/10/01 08:29:08;;;;;;;;;;;23.70;50.40;;;;;;5056300;28;19967;-68
2021/10/01 08:31:35;;;;;;;;;;;23.70;50.10;;;;;;5043593;28;19980;-71
2021/10/01 08:34:03;;;;;;;;;;;23.80;50.00;;;;;;5034850;28;21154;-69
2021/10/01 08:36:30;;;;;;;;;;;23.80;49.70;;;;;;5056014;28;19959;-70
2021/10/01 08:38:58;;;;;;;;;;;23.80;49.50;;;;;;5056048;28;19931;-70
2021/10/01 08:41:29;;;;;;;;;;;23.80;49.10;;;;;;5049544;28;20076;-74
2021/10/01 08:43:57;;;;;;;;;;;23.80;49.20;;;;;;5049278;28;19933;-74
2021/10/01 08:46:24;;;;;;;;;;;23.80;49.20;;;;;;5060617;28;19954;-71
2021/10/01 08:48:52;;;;;;;;;;;23.80;49.20;;;;;;5057246;28;19976;-72
2021/10/01 08:51:19;;;;;;;;;;;23.80;49.10;;;;;;5052460;28;19968;-73
2021/10/01 08:54:08;;;;;;;;;;;23.80;49.00;;;;;;5044315;28;20019;-73
2021/10/01 08:56:35;;;;;;;;;;;23.80;49.00;;;;;;5051013;28;19991;-73
2021/10/01 08:59:04;;;;;;;;;;;23.80;48.80;;;;;;5053600;28;19936;-71
2021/10/01 09:02:03;;;;;;;;;;;23.90;48.40;;;;;;5052075;28;20006;-70
2021/10/01 09:04:30;;;;;;;;;;;23.90;48.60;;;;;;5055806;28;19925;-72
2021/10/01 09:06:59;;;;;;;;;;;23.90;47.90;;;;;;5055581;28;19924;-64
2021/10/01 09:09:34;;;;;;;;;;;23.90;47.20;;;;;;5056976;28;20400;-63
2021/10/01 09:12:01;;;;;;;;;;;23.80;47.50;;;;;;5040655;28;19924;-65
2021/10/01 09:14:28;;;;;;;;;;;23.90;48.00;;;;;;5077046;28;20325;-64
2021/10/01 09:16:55;;;;;;;;;;;23.90;48.20;;;;;;5058884;28;19964;-66
2021/10/01 09:19:35;;;;;;;;;;;23.90;48.30;;;;;;5076775;28;19959;-66
2021/10/01 09:22:02;;;;;;;;;;;24.00;48.40;;;;;;5077155;28;19947;-66
2021/10/01 09:24:29;;;;;;;;;;;24.00;48.40;;;;;;5076622;28;19928;-70
2021/10/01 09:26:57;;;;;;;;;;;24.00;48.40;;;;;;5076300;28;19956;-67
2021/10/01 09:29:26;;;;;;;;;;;24.10;48.50;;;;;;5076193;28;20011;-63
2021/10/01 09:31:55;;;;;;;;;;;24.10;48.40;;;;;;5076712;28;19954;-66
2021/10/01 09:34:30;;;;;;;;;;;24.10;48.40;;;;;;5052302;28;19987;-65
2021/10/01 09:37:00;;;;;;;;;;;24.10;48.40;;;;;;5053937;28;19928;-65
2021/10/01 09:39:30;;;;;;;;;;;24.20;48.40;;;;;;5050674;28;19925;-67
2021/10/01 09:45:01;;;;;;;;;;;24.20;48.40;;;;;;5051336;28;19940;-65
2021/10/01 09:47:30;;;;;;;;;;;24.30;48.30;;;;;;5059229;28;20030;-64
2021/10/01 09:49:58;;;;;;;;;;;24.30;48.20;;;;;;5055024;28;19920;-67
2021/10/01 09:52:50;;;;;;;;;;;24.30;48.40;;;;;;5046746;28;19921;-68
2021/10/01 09:55:19;;;;;;;;;;;24.30;48.30;;;;;;5051262;28;19955;-69
2021/10/01 09:58:00;;;;;;;;;;;24.40;48.30;;;;;;5053542;28;19959;-71
2021/10/01 10:00:30;;;;;;;;;;;24.40;48.20;;;;;;5059161;28;19968;-76
2021/10/01 10:02:57;;;;;;;;;;;24.50;48.00;;;;;;5048263;28;19988;-69
2021/10/01 10:05:46;;;;;;;;;;;24.50;47.90;;;;;;5055000;28;19956;-72
2021/10/01 10:08:13;;;;;;;;;;;24.60;47.90;;;;;;5052543;28;20040;-70
2021/10/01 10:11:01;;;;;;;;;;;24.70;47.70;;;;;;5049899;28;20351;-64
2021/10/01 10:13:43;;;;;;;;;;;24.70;47.60;;;;;;5047065;28;20028;-68
2021/10/01 10:16:12;;;;;;;;;;;24.70;47.60;;;;;;5053116;28;20322;-65
2021/10/01 10:18:40;;;;;;;;;;;24.80;47.50;;;;;;5057332;28;19928;-65
2021/10/01 10:21:13;;;;;;;;;;;24.80;47.50;;;;;;5043524;28;20520;-66
2021/10/01 10:23:40;;;;;;;;;;;24.80;47.40;;;;;;5046208;28;19928;-66
2021/10/01 10:26:07;;;;;;;;;;;24.80;47.30;;;;;;5053076;28;19979;-64
2021/10/01 10:28:36;;;;;;;;;;;24.80;47.30;;;;;;5052845;28;19932;-65
2021/10/01 10:31:11;;;;;;;;;;;24.80;47.20;;;;;;5047552;28;19925;-64
2021/10/01 10:34:16;;;;;;;;;;;24.90;47.20;;;;;;5043775;28;19945;-66
2021/10/01 10:36:45;;;;;;;;;;;24.90;47.10;;;;;;5053836;28;19963;-66
2021/10/01 10:39:21;;;;;;;;;;;24.90;47.00;;;;;;5056203;28;20320;-66
2021/10/01 10:42:09;;;;;;;;;;;24.80;46.90;;;;;;5051243;28;20789;-67
2021/10/01 10:44:51;;;;;;;;;;;24.90;46.80;;;;;;5051239;28;20003;-69
2021/10/01 10:47:38;;;;;;;;;;;24.90;46.70;;;;;;5064291;28;19950;-67
2021/10/01 10:50:37;;;;;;;;;;;24.90;46.60;;;;;;5056482;28;19979;-66
2021/10/01 10:53:13;;;;;;;;;;;24.90;46.60;;;;;;5051699;28;20019;-66
2021/10/01 10:55:45;;;;;;;;;;;24.90;46.60;;;;;;5052280;28;19946;-65
2021/10/01 10:58:32;;;;;;;;;;;25.00;46.50;;;;;;5055685;28;19925;-68
2021/10/01 11:01:26;;;;;;;;;;;25.00;46.60;;;;;;5042577;28;19973;-65
2021/10/01 11:04:14;;;;;;;;;;;25.00;46.60;;;;;;5052362;28;19936;-65
2021/10/01 11:06:41;;;;;;;;;;;25.10;46.60;;;;;;5057127;28;19994;-64
2021/10/01 11:09:26;;;;;;;;;;;25.10;46.60;;;;;;5057529;28;20382;-62
2021/10/01 11:11:59;;;;;;;;;;;25.10;46.50;;;;;;5052380;28;19970;-64
2021/10/01 11:14:28;;;;;;;;;;;25.20;46.60;;;;;;5050496;28;20420;-67
2021/10/01 11:17:15;;;;;;;;;;;25.20;46.50;;;;;;5042604;28;19940;-67
2021/10/01 11:20:09;;;;;;;;;;;25.20;46.50;;;;;;5041169;28;19928;-66
2021/10/01 11:22:50;;;;;;;;;;;25.30;46.30;;;;;;5053107;28;20653;-67
2021/10/01 11:25:17;;;;;;;;;;;25.30;46.10;;;;;;5054521;28;19955;-65
2021/10/01 11:27:52;;;;;;;;;;;25.40;46.10;;;;;;5064407;28;19928;-71
2021/10/01 11:30:20;;;;;;;;;;;25.40;45.90;;;;;;5059084;28;20268;-66
2021/10/01 11:33:05;;;;;;;;;;;25.40;45.80;;;;;;5053542;28;19928;-68
2021/10/01 11:35:32;;;;;;;;;;;25.40;45.70;;;;;;5061580;28;19932;-66
2021/10/01 11:37:59;;;;;;;;;;;25.50;45.70;;;;;;5055466;28;19999;-64
2021/10/01 11:40:28;;;;;;;;;;;25.50;45.80;;;;;;5056331;28;21450;-65
2021/10/01 11:43:01;;;;;;;;;;;25.60;45.60;;;;;;5046859;28;19933;-70
2021/10/01 11:45:32;;;;;;;;;;;25.60;45.50;;;;;;5055662;28;21370;-65
2021/10/01 11:48:04;;;;;;;;;;;25.70;45.60;;;;;;5056465;28;19933;-64
2021/10/01 11:50:52;;;;;;;;;;;25.70;45.40;;;;;;5057221;28;20476;-64
2021/10/01 11:53:39;;;;;;;;;;;25.80;45.50;;;;;;5049235;28;19982;-63
2021/10/01 11:56:08;;;;;;;;;;;25.80;45.30;;;;;;5061509;28;19994;-65
2021/10/01 11:58:37;;;;;;;;;;;25.80;45.10;;;;;;5058343;28;19931;-68
2021/10/01 12:01:28;;;;;;;;;;;25.90;45.10;;;;;;5048352;28;19927;-66
2021/10/01 12:04:27;;;;;;;;;;;25.90;45.10;;;;;;5048495;28;19933;-63
2021/10/01 12:06:59;;;;;;;;;;;25.90;45.00;;;;;;5054343;28;19925;-66
2021/10/01 12:09:26;;;;;;;;;;;25.90;45.10;;;;;;5057288;28;19932;-64
2021/10/01 12:11:53;;;;;;;;;;;25.90;45.00;;;;;;5051325;28;19963;-67
2021/10/01 12:14:21;;;;;;;;;;;25.90;45.10;;;;;;5061522;28;20593;-66
2021/10/01 12:17:00;;;;;;;;;;;25.90;45.10;;;;;;5060013;28;19924;-67
2021/10/01 12:19:28;;;;;;;;;;;25.80;45.00;;;;;;5066467;28;20512;-63
2021/10/01 12:22:08;;;;;;;;;;;25.80;44.90;;;;;;5050568;28;20016;-64
2021/10/01 12:24:40;;;;;;;;;;;25.80;44.90;;;;;;5066345;28;19975;-66
2021/10/01 12:27:07;;;;;;;;;;;25.70;44.90;;;;;;5065105;28;19963;-67
2021/10/01 12:29:40;;;;;;;;;;;25.70;44.90;;;;;;5065261;28;20348;-67
2021/10/01 12:32:07;;;;;;;;;;;25.70;45.00;;;;;;5060698;28;19932;-66
2021/10/01 12:34:41;;;;;;;;;;;25.70;45.10;;;;;;5069116;28;19925;-66
2021/10/01 12:37:09;;;;;;;;;;;25.60;45.10;;;;;;5063511;28;20039;-67
2021/10/01 12:39:37;;;;;;;;;;;25.60;45.20;;;;;;5061387;28;19929;-63
2021/10/01 12:42:09;;;;;;;;;;;25.50;45.20;;;;;;5062030;28;19932;-66
2021/10/01 12:44:39;;;;;;;;;;;25.50;45.20;;;;;;5066032;28;20223;-66
2021/10/01 12:47:11;;;;;;;;;;;25.50;45.50;;;;;;5049907;28;19925;-66
2021/10/01 12:49:38;;;;;;;;;;;25.50;45.60;;;;;;5063889;28;19978;-67
2021/10/01 12:52:09;;;;;;;;;;;25.40;45.50;;;;;;5062807;28;19921;-64
2021/10/01 12:54:46;;;;;;;;;;;25.40;45.60;;;;;;5071261;28;19920;-66
2021/10/01 12:57:18;;;;;;;;;;;25.40;45.80;;;;;;5065532;28;19979;-63
2021/10/01 12:59:48;;;;;;;;;;;25.40;45.80;;;;;;5055047;28;19925;-64
2021/10/01 13:02:25;;;;;;;;;;;25.40;45.80;;;;;;5059519;28;20030;-63
2021/10/01 13:04:57;;;;;;;;;;;25.30;45.80;;;;;;5060396;28;19929;-66
2021/10/01 13:07:26;;;;;;;;;;;25.40;46.30;;;;;;5047630;28;20359;-62
2021/10/01 13:09:54;;;;;;;;;;;25.30;46.40;;;;;;5062893;28;20328;-67
2021/10/01 13:12:28;;;;;;;;;;;25.40;46.30;;;;;;5063381;28;19924;-68
2021/10/01 13:15:09;;;;;;;;;;;25.40;46.40;;;;;;5068591;28;20443;-66
2021/10/01 13:17:35;;;;;;;;;;;25.40;46.30;;;;;;5067578;28;20143;-67
2021/10/01 13:20:03;;;;;;;;;;;25.40;46.10;;;;;;5062177;28;20633;-67
2021/10/01 13:22:49;;;;;;;;;;;25.40;46.00;;;;;;5065295;28;20027;-68
2021/10/01 13:25:24;;;;;;;;;;;25.40;45.80;;;;;;5069401;28;20023;-67
2021/10/01 13:27:52;;;;;;;;;;;25.40;45.80;;;;;;5070034;28;20023;-68
2021/10/01 13:30:19;;;;;;;;;;;25.40;45.60;;;;;;5062431;28;20599;-63
2021/10/01 13:32:46;;;;;;;;;;;25.40;45.50;;;;;;5049104;28;20003;-67
2021/10/01 13:35:15;;;;;;;;;;;25.50;46.00;;;;;;5048752;28;20397;-67
2021/10/01 13:37:43;;;;;;;;;;;25.50;48.90;;;;;;5048177;28;19951;-67
2021/10/01 13:40:11;;;;;;;;;;;25.50;51.30;;;;;;5049337;28;19999;-66
2021/10/01 13:42:38;;;;;;;;;;;25.50;51.00;;;;;;5063155;28;20015;-67
2021/10/01 13:45:05;;;;;;;;;;;25.40;50.90;;;;;;5068467;28;19924;-67
2021/10/01 13:47:33;;;;;;;;;;;25.40;50.30;;;;;;5068571;28;20059;-66
2021/10/01 13:50:00;;;;;;;;;;;25.40;49.60;;;;;;5063897;28;20043;-66
2021/10/01 13:52:27;;;;;;;;;;;25.40;48.80;;;;;;5062808;28;19934;-66
2021/10/01 13:54:54;;;;;;;;;;;25.40;48.10;;;;;;5068366;28;19924;-66
2021/10/01 13:57:21;;;;;;;;;;;25.30;47.60;;;;;;5068145;28;20316;-66
2021/10/01 13:59:51;;;;;;;;;;;25.30;47.30;;;;;;5065306;28;20019;-67
2021/10/01 14:02:18;;;;;;;;;;;25.30;47.10;;;;;;5062895;28;19924;-67
2021/10/01 14:04:45;;;;;;;;;;;25.30;47.00;;;;;;5068681;28;20049;-64
2021/10/01 14:07:12;;;;;;;;;;;25.20;46.70;;;;;;5068031;28;19971;-67
2021/10/01 14:09:39;;;;;;;;;;;25.20;46.60;;;;;;5067326;28;19925;-67
2021/10/01 14:12:24;;;;;;;;;;;25.20;46.50;;;;;;5064580;28;20392;-67
2021/10/01 14:14:51;;;;;;;;;;;25.20;46.40;;;;;;5071381;28;20350;-67
2021/10/01 14:17:18;;;;;;;;;;;25.10;46.30;;;;;;5072292;28;20181;-66
2021/10/01 14:19:45;;;;;;;;;;;25.10;46.30;;;;;;5068978;28;20002;-64
2021/10/01 14:22:12;;;;;;;;;;;25.10;46.30;;;;;;5066704;28;20015;-66
2021/10/01 14:24:44;;;;;;;;;;;25.10;46.30;;;;;;5071853;28;19955;-66
2021/10/01 14:27:24;;;;;;;;;;;25.10;46.30;;;;;;5071900;28;19925;-68
2021/10/01 14:29:52;;;;;;;;;;;25.10;46.30;;;;;;5068422;28;19936;-67
2021/10/01 14:32:19;;;;;;;;;;;25.10;46.30;;;;;;5066942;28;19978;-67
2021/10/01 14:34:46;;;;;;;;;;;25.00;46.20;;;;;;5072328;28;19924;-64
2021/10/01 14:37:13;;;;;;;;;;;25.10;46.30;;;;;;5071601;28;19967;-67
2021/10/01 14:39:40;;;;;;;;;;;25.00;46.10;;;;;;5052918;28;19925;-66
2021/10/01 14:42:08;;;;;;;;;;;25.10;46.10;;;;;;5048569;28;19932;-67
2021/10/01 14:44:35;;;;;;;;;;;25.10;46.10;;;;;;5071504;28;19963;-66
2021/10/01 14:47:02;;;;;;;;;;;25.10;46.10;;;;;;5071447;28;19967;-67
2021/10/01 14:49:29;;;;;;;;;;;25.10;46.10;;;;;;5071837;28;20340;-67
2021/10/01 14:51:56;;;;;;;;;;;25.10;46.00;;;;;;5063680;28;19925;-67
2021/10/01 14:54:23;;;;;;;;;;;25.10;46.00;;;;;;5071494;28;19934;-67
2021/10/01 14:56:50;;;;;;;;;;;25.10;45.90;;;;;;5071306;28;19976;-67
2021/10/01 14:59:17;;;;;;;;;;;25.10;46.00;;;;;;5071687;28;20023;-67
2021/10/01 15:01:44;;;;;;;;;;;25.10;46.00;;;;;;5063585;28;19929;-66
2021/10/01 15:04:11;;;;;;;;;;;25.10;46.10;;;;;;5071065;28;19931;-67
2021/10/01 15:06:39;;;;;;;;;;;25.10;46.20;;;;;;5071881;28;19974;-66
2021/10/01 15:09:06;;;;;;;;;;;25.00;46.30;;;;;;5071018;28;19939;-67
2021/10/01 15:11:33;;;;;;;;;;;25.10;46.40;;;;;;5064219;28;19982;-64
2021/10/01 15:14:00;;;;;;;;;;;25.00;46.30;;;;;;5070718;28;19931;-67
2021/10/01 15:16:27;;;;;;;;;;;25.00;46.30;;;;;;5070762;28;19985;-67
2021/10/01 15:18:54;;;;;;;;;;;25.00;46.30;;;;;;5070944;28;19981;-67
2021/10/01 15:21:21;;;;;;;;;;;25.00;46.40;;;;;;5063910;28;19984;-66
2021/10/01 15:23:48;;;;;;;;;;;25.00;46.40;;;;;;5070635;28;20015;-67
2021/10/01 15:26:16;;;;;;;;;;;24.90;46.40;;;;;;5070631;28;20023;-67
2021/10/01 15:28:43;;;;;;;;;;;24.90;46.40;;;;;;5070976;28;19991;-67
2021/10/01 15:31:12;;;;;;;;;;;24.90;46.40;;;;;;5062760;28;20373;-64
2021/10/01 15:33:39;;;;;;;;;;;24.90;46.50;;;;;;5052955;28;19924;-66
2021/10/01 15:36:06;;;;;;;;;;;24.80;46.50;;;;;;5070676;28;20388;-66
2021/10/01 15:38:33;;;;;;;;;;;24.90;46.60;;;;;;5070357;28;20395;-66
2021/10/01 15:40:59;;;;;;;;;;;24.80;46.60;;;;;;5062228;28;19924;-64
2021/10/01 15:43:26;;;;;;;;;;;24.80;46.60;;;;;;5070619;28;20439;-66
2021/10/01 15:45:57;;;;;;;;;;;24.80;46.70;;;;;;5069910;28;20002;-67
2021/10/01 15:48:24;;;;;;;;;;;24.80;46.70;;;;;;5062354;28;19935;-67
2021/10/01 15:50:52;;;;;;;;;;;24.80;46.70;;;;;;5065015;28;19924;-67
2021/10/01 15:53:19;;;;;;;;;;;24.70;46.80;;;;;;5069602;28;19924;-66
2021/10/01 15:55:46;;;;;;;;;;;24.70;46.80;;;;;;5070452;28;19928;-66
2021/10/01 15:58:13;;;;;;;;;;;24.70;46.80;;;;;;5070272;28;19931;-67
2021/10/01 16:00:41;;;;;;;;;;;24.70;46.90;;;;;;5063976;28;20563;-63
2021/10/01 16:03:09;;;;;;;;;;;24.70;46.90;;;;;;5067246;28;20159;-66
2021/10/01 16:05:36;;;;;;;;;;;24.60;46.90;;;;;;5070332;28;19924;-66
2021/10/01 16:08:05;;;;;;;;;;;24.60;46.90;;;;;;5069969;28;20286;-66